الصفحة الرئيسية
METAR-TAF:

METAR-TAF

مطار :

Derby, أستراليا

دائرة عرض: 17-34-53S, خط طول: 123-49-42E, ارتفاع: 91 متر

مراقبة الطقس الحالي

تاريخ ووقت الإصدار 23 دقيقة قبل الساعة 07:00UTC
ريح 5 عقدة من الشمال الغربي
درجة الحرارة 37°درجة مئوية
الرطوبة 48%
ضغط 1006 hPa
الرؤية 10 كم أو أكثر

METAR: YCIN 310700Z AUTO 32005KT 9999 // NCD 37/24 Q1006 RF00.0/000.0

زمن: 15:23 (07:23 UTC)

توقعات

تاريخ ووقت الإصدار 7ساعات و 1 دقيقة قبل الساعة 00:22UTC
التوقعات صالحة من31 الساعة 02 UTC إلى 31 الساعة 14 UTC
ريح 10 عقدة من الغرب/الشمال الغربي
الرؤية 10 كم أو أكثر
الغيوم لا تقل 1500 م ولا وجود لمزنة ركامية السحاب الأسود

TAF: YCIN 310022Z 3102/3114 30010KT CAVOK

أرصاد الطقس والتوقعات من أكثر من 4000 مطار (تقارير الطقس للمطار METAR والتنبؤ بالطقس بالمطارTAF).

المحطات المتاحة هي النقط الصفراء والحمراء على الخريطة.

حرك المؤشر فوق النقطة لمعرفة اسم المحطة.

ثم انقر لمعرفة أرصاد وتوقعات الطقس.

لتغيير الخارطة: اضغط على الأزرار الخضراء مع رمز الصليب الأسود للتكبير. على الزر الأخضر مع شرطة للتصغير، أو على الأسهم الخضراء للخرائط المجاورة.


METAR-TAF: